createdAt,value
2018-03-28T00:00:04.636Z,43
2018-03-28T00:15:05.031Z,43
2018-03-28T00:30:04.799Z,43
2018-03-28T00:45:04.682Z,43
2018-03-28T01:00:05.169Z,43
2018-03-28T01:15:05.065Z,43
2018-03-28T01:30:05.166Z,43
2018-03-28T01:45:04.699Z,43
2018-03-28T02:00:05.405Z,43
2018-03-28T02:15:04.798Z,44
2018-03-28T02:30:04.711Z,45
2018-03-28T02:45:05.421Z,44
2018-03-28T03:00:05.721Z,44
2018-03-28T03:15:04.889Z,44
2018-03-28T03:30:05.075Z,45
2018-03-28T03:45:05.139Z,46
2018-03-28T04:00:04.505Z,46
2018-03-28T04:15:05.047Z,46
2018-03-28T04:30:05.043Z,46
2018-03-28T04:45:04.878Z,47
2018-03-28T05:00:05.593Z,45
2018-03-28T05:15:04.816Z,46
2018-03-28T05:30:05.305Z,47
2018-03-28T05:45:04.380Z,46
2018-03-28T06:00:04.875Z,47
2018-03-28T06:15:04.352Z,47
2018-03-28T06:30:05.108Z,46
2018-03-28T06:45:04.584Z,46
2018-03-28T07:00:04.994Z,47
2018-03-28T07:15:04.924Z,47
2018-03-28T07:30:04.579Z,49
2018-03-28T07:45:05.008Z,49
2018-03-28T08:00:04.478Z,49
2018-03-28T08:15:04.887Z,51
2018-03-28T08:30:04.511Z,51
2018-03-28T08:45:04.526Z,52
2018-03-28T09:00:04.969Z,49
2018-03-28T09:15:04.848Z,50
2018-03-28T09:30:05.041Z,50
2018-03-28T09:45:04.500Z,50
2018-03-28T10:00:04.925Z,49
2018-03-28T10:15:04.894Z,49
2018-03-28T10:30:04.680Z,48
2018-03-28T10:45:05.393Z,48
2018-03-28T11:00:04.343Z,48
2018-03-28T11:15:04.334Z,47
2018-03-28T11:30:04.473Z,46
2018-03-28T11:45:04.990Z,46
2018-03-28T12:00:04.993Z,48
2018-03-28T12:15:04.871Z,47
2018-03-28T12:30:04.571Z,48
2018-03-28T12:45:05.083Z,48
2018-03-28T13:00:05.051Z,47
2018-03-28T13:15:04.446Z,47
2018-03-28T13:30:05.040Z,47
2018-03-28T13:45:04.448Z,47
2018-03-28T14:00:04.618Z,47
2018-03-28T14:15:05.050Z,46
2018-03-28T14:30:04.770Z,47
2018-03-28T14:45:05.009Z,47
2018-03-28T15:00:04.895Z,47
2018-03-28T15:15:04.528Z,47
2018-03-28T15:30:04.615Z,48
2018-03-28T15:45:05.160Z,47
2018-03-28T16:00:04.808Z,46
2018-03-28T16:15:04.948Z,48
2018-03-28T16:30:04.570Z,47
2018-03-28T16:45:05.112Z,46
2018-03-28T17:00:05.194Z,46
2018-03-28T17:15:05.288Z,46
2018-03-28T17:30:04.608Z,46
2018-03-28T17:45:05.157Z,45
2018-03-28T18:00:04.627Z,46
2018-03-28T18:15:05.157Z,46
2018-03-28T18:30:05.129Z,47
2018-03-28T18:45:05.392Z,46
2018-03-28T19:00:05.030Z,45
2018-03-28T19:15:04.537Z,46
2018-03-28T19:30:04.938Z,45
2018-03-28T19:45:04.951Z,45
2018-03-28T20:00:04.521Z,45
2018-03-28T20:15:05.205Z,45
2018-03-28T20:30:04.460Z,45
2018-03-28T20:45:05.424Z,45
2018-03-28T21:00:04.688Z,46
2018-03-28T21:15:05.402Z,45
2018-03-28T21:30:05.148Z,45
2018-03-28T21:45:04.588Z,43
2018-03-28T22:00:04.748Z,43
2018-03-28T22:15:05.431Z,43
2018-03-28T22:30:04.771Z,43
2018-03-28T22:45:05.272Z,42
2018-03-28T23:00:05.402Z,45
2018-03-28T23:15:04.583Z,43
2018-03-28T23:30:04.958Z,43
2018-03-28T23:45:04.903Z,43
